createdAt,value
2023-01-12T00:00:33.615Z,59.08
2023-01-12T00:02:52.720Z,60.28
2023-01-12T00:04:54.408Z,60.53
2023-01-12T00:06:57.349Z,62.77
2023-01-12T00:08:59.351Z,62.10
2023-01-12T00:11:01.481Z,64.18
2023-01-12T00:13:03.507Z,62.88
2023-01-12T00:15:05.500Z,70.45
2023-01-12T00:17:09.133Z,63.90
2023-01-12T00:19:18.298Z,62.08
2023-01-12T00:21:20.016Z,62.85
2023-01-12T00:23:22.118Z,63.83
2023-01-12T00:25:23.834Z,62.33
2023-01-12T00:27:25.912Z,62.40
2023-01-12T00:29:27.986Z,57.67
2023-01-12T00:31:29.803Z,64.93
2023-01-12T00:33:31.936Z,57.83
2023-01-12T00:35:35.451Z,62.53
2023-01-12T00:37:37.824Z,66.32
2023-01-12T00:39:42.922Z,58.20
2023-01-12T00:42:06.723Z,62.08
2023-01-12T00:44:27.317Z,69.50
2023-01-12T00:46:30.571Z,60.75
2023-01-12T00:50:34.279Z,63.78
2023-01-12T00:52:38.257Z,62.20
2023-01-12T00:54:41.042Z,61.80
2023-01-12T00:56:42.731Z,60.10
2023-01-12T00:58:44.825Z,56.13
2023-01-12T01:00:46.541Z,63.15
2023-01-12T01:02:48.704Z,54.07
2023-01-12T01:04:51.396Z,56.42
2023-01-12T01:06:53.304Z,54.60
2023-01-12T01:08:55.398Z,57.55
2023-01-12T01:11:03.071Z,56.25
2023-01-12T01:13:05.142Z,58.70
2023-01-12T01:15:07.750Z,55.95
2023-01-12T01:17:09.864Z,57.42
2023-01-12T01:19:11.624Z,53.70
2023-01-12T01:21:14.641Z,54.67
2023-01-12T01:23:19.858Z,57.70
2023-01-12T01:25:24.001Z,55.47
2023-01-12T01:27:25.779Z,55.95
2023-01-12T01:29:27.973Z,56.25
2023-01-12T01:31:29.987Z,55.35
2023-01-12T01:33:32.435Z,54.47
2023-01-12T01:35:35.402Z,58.75
2023-01-12T01:37:37.646Z,51.55
2023-01-12T01:39:39.339Z,54.90
2023-01-12T01:41:43.543Z,50.37
2023-01-12T01:43:52.459Z,56.00
2023-01-12T01:46:00.266Z,50.90
2023-01-12T01:48:02.737Z,60.08
2023-01-12T01:50:06.240Z,54.13
2023-01-12T01:52:11.420Z,56.88
2023-01-12T01:54:14.130Z,62.15
2023-01-12T01:56:21.941Z,50.08
2023-01-12T01:58:26.907Z,55.80
2023-01-12T02:00:29.585Z,54.25
2023-01-12T02:02:31.322Z,50.45
2023-01-12T02:04:33.628Z,53.65
2023-01-12T02:06:35.762Z,53.75
2023-01-12T02:08:43.421Z,55.67
2023-01-12T02:10:45.468Z,51.65
2023-01-12T02:13:06.482Z,56.03
2023-01-12T02:15:27.186Z,53.72
2023-01-12T02:17:50.985Z,54.25
2023-01-12T02:19:52.742Z,51.38
2023-01-12T02:22:07.099Z,53.50
2023-01-12T02:24:25.231Z,56.67
2023-01-12T02:26:33.359Z,56.88
2023-01-12T02:28:49.164Z,50.95
2023-01-12T02:31:09.877Z,55.40
2023-01-12T02:33:30.108Z,49.20
2023-01-12T02:35:43.318Z,53.10
2023-01-12T02:38:00.386Z,53.95
2023-01-12T02:40:02.573Z,55.70
2023-01-12T02:42:42.551Z,46.88
2023-01-12T02:44:51.908Z,51.00
2023-01-12T02:46:54.730Z,53.13
2023-01-12T02:49:00.095Z,55.20
2023-01-12T02:51:10.391Z,51.13
2023-01-12T02:53:15.548Z,50.55
2023-01-12T02:55:18.093Z,50.40
2023-01-12T02:57:20.961Z,53.92
2023-01-12T02:59:22.624Z,47.20
2023-01-12T03:01:25.692Z,44.60
2023-01-12T03:03:27.524Z,48.92
2023-01-12T03:05:29.582Z,48.83
2023-01-12T03:07:31.220Z,49.45
2023-01-12T03:09:39.384Z,48.30
2023-01-12T03:11:43.122Z,50.40
2023-01-12T03:13:50.491Z,46.63
2023-01-12T03:15:53.831Z,47.50
2023-01-12T03:18:00.509Z,47.97
2023-01-12T03:20:05.151Z,47.70
2023-01-12T03:22:09.790Z,45.45
2023-01-12T03:24:12.841Z,46.47
2023-01-12T03:26:19.014Z,46.70
2023-01-12T03:28:21.503Z,46.58
2023-01-12T03:30:26.983Z,45.15
2023-01-12T03:32:28.799Z,46.60
2023-01-12T03:34:32.106Z,47.22
2023-01-12T03:38:46.554Z,46.85
2023-01-12T03:40:57.000Z,48.05
2023-01-12T03:43:04.584Z,42.38
2023-01-12T03:45:06.653Z,43.55
2023-01-12T03:47:20.319Z,47.22
2023-01-12T03:49:33.424Z,42.15
2023-01-12T03:51:36.344Z,45.70
2023-01-12T03:53:39.370Z,46.33
2023-01-12T03:55:42.726Z,48.08
2023-01-12T03:57:45.211Z,45.85
2023-01-12T03:59:46.960Z,44.13
2023-01-12T04:01:49.290Z,44.28
2023-01-12T04:03:51.043Z,47.00
2023-01-12T04:05:53.166Z,44.30
2023-01-12T04:07:54.875Z,45.42
2023-01-12T04:09:57.334Z,45.33
2023-01-12T04:12:11.534Z,50.67
2023-01-12T04:14:13.670Z,46.38
2023-01-12T04:16:15.382Z,47.60
2023-01-12T04:18:17.431Z,54.13
2023-01-12T04:20:19.403Z,49.05
2023-01-12T04:22:39.915Z,46.15
2023-01-12T04:24:41.700Z,47.05
2023-01-12T04:26:44.348Z,47.50
2023-01-12T04:28:46.045Z,43.45
2023-01-12T04:30:48.077Z,49.23
2023-01-12T04:32:49.816Z,49.55
2023-01-12T04:34:51.969Z,45.80
2023-01-12T04:36:53.676Z,45.63
2023-01-12T04:38:55.668Z,52.40
2023-01-12T04:40:57.324Z,44.53
2023-01-12T04:43:02.187Z,49.03
2023-01-12T04:45:04.403Z,45.13
2023-01-12T04:47:07.374Z,53.13
2023-01-12T04:49:09.424Z,43.60
2023-01-12T04:51:11.333Z,43.78
2023-01-12T04:53:13.876Z,48.78
2023-01-12T04:55:15.697Z,47.80
2023-01-12T04:57:17.800Z,46.27
2023-01-12T04:59:19.527Z,43.15
2023-01-12T05:01:22.662Z,45.30
2023-01-12T05:03:24.492Z,43.30
2023-01-12T05:05:26.791Z,46.05
2023-01-12T05:07:28.772Z,43.63
2023-01-12T05:09:49.236Z,41.40
2023-01-12T05:11:50.923Z,43.58
2023-01-12T05:13:52.912Z,41.83
2023-01-12T05:15:54.928Z,42.70
2023-01-12T05:17:57.230Z,42.97
2023-01-12T05:20:00.814Z,40.95
2023-01-12T05:22:03.183Z,44.33
2023-01-12T05:24:05.000Z,43.65
2023-01-12T05:26:07.787Z,37.90
2023-01-12T05:28:09.449Z,43.85
2023-01-12T05:30:11.559Z,40.28
2023-01-12T05:32:13.285Z,43.15
2023-01-12T05:34:18.409Z,44.83
2023-01-12T05:36:20.677Z,42.15
2023-01-12T05:38:22.720Z,41.13
2023-01-12T05:40:24.602Z,41.80
2023-01-12T05:42:45.456Z,40.00
2023-01-12T05:44:47.153Z,39.25
2023-01-12T05:46:49.179Z,39.80
2023-01-12T05:48:51.923Z,38.47
2023-01-12T05:52:56.329Z,39.03
2023-01-12T05:54:58.430Z,38.85
2023-01-12T05:57:00.078Z,37.92
2023-01-12T05:59:04.464Z,39.30
2023-01-12T06:01:06.914Z,37.85
2023-01-12T06:03:08.971Z,39.92
2023-01-12T06:05:10.963Z,44.97
2023-01-12T06:07:15.300Z,42.38
2023-01-12T06:09:17.499Z,40.28
2023-01-12T06:11:38.790Z,42.05
2023-01-12T06:13:58.855Z,43.45
2023-01-12T06:16:05.710Z,43.20
2023-01-12T06:18:07.451Z,43.05
2023-01-12T06:20:10.719Z,44.00
2023-01-12T06:22:12.421Z,43.72
2023-01-12T06:24:14.516Z,41.90
2023-01-12T06:26:16.834Z,44.47
2023-01-12T06:28:19.011Z,47.38
2023-01-12T06:30:20.763Z,42.72
2023-01-12T06:32:22.869Z,43.53
2023-01-12T06:34:24.611Z,43.03
2023-01-12T06:36:26.704Z,46.00
2023-01-12T06:38:29.549Z,43.00
2023-01-12T06:40:32.037Z,43.13
2023-01-12T06:42:34.055Z,41.83
2023-01-12T06:44:35.765Z,49.88
2023-01-12T06:46:37.919Z,45.90
2023-01-12T06:48:39.697Z,46.60
2023-01-12T06:50:41.831Z,47.58
2023-01-12T06:52:43.583Z,46.95
2023-01-12T06:54:45.708Z,42.85
2023-01-12T06:56:47.439Z,47.40
2023-01-12T06:58:49.536Z,43.10
2023-01-12T07:00:51.833Z,42.95
2023-01-12T07:04:56.073Z,47.17
2023-01-12T07:06:59.048Z,42.08
2023-01-12T07:09:00.786Z,50.93
2023-01-12T07:11:03.767Z,47.10
2023-01-12T07:13:05.434Z,45.90
2023-01-12T07:15:07.981Z,46.33
2023-01-12T07:17:09.665Z,44.92
2023-01-12T07:19:11.768Z,52.50
2023-01-12T07:21:15.000Z,43.67
2023-01-12T07:23:16.984Z,50.35
2023-01-12T07:25:18.683Z,52.20
2023-01-12T07:27:20.793Z,58.67
2023-01-12T07:29:22.433Z,48.40
2023-01-12T07:31:24.607Z,50.67
2023-01-12T07:33:26.659Z,48.50
2023-01-12T07:35:28.598Z,47.05
2023-01-12T07:37:30.668Z,42.22
2023-01-12T07:39:32.313Z,52.00
2023-01-12T07:41:53.535Z,43.03
2023-01-12T07:43:55.287Z,45.95
2023-01-12T07:45:58.196Z,49.13
2023-01-12T07:48:00.055Z,51.95
2023-01-12T07:50:02.171Z,44.38
2023-01-12T07:52:04.080Z,53.05
2023-01-12T07:54:06.174Z,45.75
2023-01-12T07:56:09.657Z,48.10
2023-01-12T07:58:11.745Z,45.60
2023-01-12T08:00:13.685Z,42.38
2023-01-12T08:02:19.444Z,45.55
2023-01-12T08:04:21.894Z,44.70
2023-01-12T08:06:23.937Z,43.28
2023-01-12T08:08:25.605Z,44.53
2023-01-12T08:10:27.749Z,43.47
2023-01-12T08:12:30.406Z,42.75
2023-01-12T08:16:37.023Z,44.33
2023-01-12T08:18:42.737Z,44.45
2023-01-12T08:20:44.634Z,39.67
2023-01-12T08:22:48.884Z,40.88
2023-01-12T08:25:00.193Z,47.42
2023-01-12T08:27:03.240Z,43.67
2023-01-12T08:29:08.199Z,44.83
2023-01-12T08:31:11.193Z,38.88
2023-01-12T08:33:12.984Z,42.92
2023-01-12T08:35:16.859Z,40.10
2023-01-12T08:37:21.297Z,40.33
2023-01-12T08:39:23.305Z,38.53
2023-01-12T08:41:34.190Z,35.60
2023-01-12T08:43:54.652Z,40.42
2023-01-12T08:45:56.304Z,38.15
2023-01-12T08:47:58.392Z,39.03
2023-01-12T08:50:00.613Z,42.72
2023-01-12T08:52:02.731Z,40.83
2023-01-12T08:54:04.518Z,42.33
2023-01-12T08:56:06.841Z,43.03
2023-01-12T08:58:08.497Z,40.10
2023-01-12T09:00:10.846Z,41.60
2023-01-12T09:02:13.127Z,36.78
2023-01-12T09:04:15.223Z,37.88
2023-01-12T09:06:24.579Z,34.42
2023-01-12T09:08:26.581Z,36.28
2023-01-12T09:10:28.634Z,36.25
2023-01-12T09:12:30.730Z,40.73
2023-01-12T09:14:33.674Z,30.02
2023-01-12T09:16:36.047Z,31.65
2023-01-12T09:18:38.024Z,29.80
2023-01-12T09:20:39.743Z,35.17
2023-01-12T09:22:41.740Z,29.27
2023-01-12T09:24:43.425Z,41.53
2023-01-12T09:26:46.650Z,26.73
2023-01-12T09:28:48.783Z,28.48
2023-01-12T09:30:50.433Z,29.07
2023-01-12T09:32:54.316Z,35.17
2023-01-12T09:34:56.092Z,32.30
2023-01-12T09:36:59.572Z,34.20
2023-01-12T09:39:04.432Z,28.15
2023-01-12T09:41:11.527Z,30.35
2023-01-12T09:43:32.711Z,31.60
2023-01-12T09:45:53.696Z,33.00
2023-01-12T09:47:56.903Z,26.85
2023-01-12T09:50:11.063Z,30.00
2023-01-12T09:52:16.263Z,28.90
2023-01-12T09:54:18.414Z,25.17
2023-01-12T09:56:25.126Z,30.52
2023-01-12T09:58:38.184Z,28.00
2023-01-12T10:00:39.955Z,27.10
2023-01-12T10:02:44.031Z,23.70
2023-01-12T10:04:47.974Z,33.30
2023-01-12T10:06:50.079Z,26.80
2023-01-12T10:08:54.395Z,32.92
2023-01-12T10:11:10.895Z,27.35
2023-01-12T10:13:14.296Z,25.88
2023-01-12T10:15:31.692Z,26.15
2023-01-12T10:17:53.607Z,20.15
2023-01-12T10:20:02.332Z,28.85
2023-01-12T10:22:39.867Z,20.58
2023-01-12T10:24:42.267Z,24.23
2023-01-12T10:26:44.927Z,26.75
2023-01-12T10:30:48.989Z,22.90
2023-01-12T10:32:51.090Z,26.55
2023-01-12T10:34:52.808Z,23.95
2023-01-12T10:36:58.885Z,23.37
2023-01-12T10:39:03.633Z,23.95
2023-01-12T10:41:05.760Z,21.80
2023-01-12T10:43:20.489Z,22.77
2023-01-12T10:45:24.040Z,22.60
2023-01-12T10:47:26.090Z,21.52
2023-01-12T10:49:27.817Z,19.17
2023-01-12T10:51:31.292Z,22.50
2023-01-12T10:53:44.076Z,28.77
2023-01-12T10:55:47.536Z,20.67
2023-01-12T10:57:51.098Z,23.48
2023-01-12T10:59:57.740Z,25.13
2023-01-12T11:02:07.029Z,23.08
2023-01-12T11:04:16.453Z,19.73
2023-01-12T11:06:24.732Z,23.17
2023-01-12T11:08:27.240Z,20.30
2023-01-12T11:10:33.472Z,19.38
2023-01-12T11:12:40.037Z,22.48
2023-01-12T11:14:42.567Z,18.63
2023-01-12T11:16:53.035Z,27.50
2023-01-12T11:19:22.120Z,24.60
2023-01-12T11:21:25.790Z,21.60
2023-01-12T11:23:27.839Z,23.70
2023-01-12T11:25:35.664Z,23.77
2023-01-12T11:27:40.673Z,28.30
2023-01-12T11:29:57.161Z,24.38
2023-01-12T11:32:28.375Z,22.20
2023-01-12T11:34:33.435Z,25.60
2023-01-12T11:36:42.883Z,24.55
2023-01-12T11:38:49.451Z,22.42
2023-01-12T11:40:53.483Z,31.27
2023-01-12T11:43:14.903Z,19.55
2023-01-12T11:45:20.445Z,26.60
2023-01-12T11:47:25.164Z,25.75
2023-01-12T11:49:39.483Z,19.30
2023-01-12T11:51:41.582Z,21.58
2023-01-12T11:53:44.642Z,25.27
2023-01-12T11:56:06.248Z,23.23
2023-01-12T11:58:11.060Z,22.23
2023-01-12T12:00:35.220Z,18.25
2023-01-12T12:02:40.441Z,19.02
2023-01-12T12:05:05.749Z,18.88
2023-01-12T12:07:17.451Z,20.30
2023-01-12T12:09:24.812Z,24.05
2023-01-12T12:11:47.392Z,21.08
2023-01-12T12:14:08.423Z,17.80
2023-01-12T12:16:30.153Z,24.20
2023-01-12T12:18:37.770Z,18.98
2023-01-12T12:20:46.544Z,22.48
2023-01-12T12:23:14.334Z,18.13
2023-01-12T12:25:16.368Z,21.02
2023-01-12T12:27:28.651Z,21.50
2023-01-12T12:29:38.688Z,19.42
2023-01-12T12:31:55.180Z,21.17
2023-01-12T12:34:06.844Z,16.48
2023-01-12T12:36:24.885Z,19.65
2023-01-12T12:38:30.185Z,17.65
2023-01-12T12:40:54.064Z,19.58
2023-01-12T12:43:17.726Z,28.67
2023-01-12T12:45:29.728Z,18.48
2023-01-12T12:47:37.552Z,18.77
2023-01-12T12:49:39.377Z,18.65
2023-01-12T12:51:41.860Z,18.30
2023-01-12T12:53:44.989Z,19.38
2023-01-12T12:55:48.663Z,37.83
2023-01-12T12:58:22.635Z,18.55
2023-01-12T13:00:29.131Z,17.58
2023-01-12T13:02:38.008Z,19.20
2023-01-12T13:04:43.321Z,19.70
2023-01-12T13:06:46.948Z,17.52
2023-01-12T13:08:50.849Z,13.70
2023-01-12T13:10:57.748Z,18.95
2023-01-12T13:13:02.037Z,21.17
2023-01-12T13:15:21.629Z,15.93
2023-01-12T13:17:24.042Z,20.85
2023-01-12T13:19:37.141Z,18.63
2023-01-12T13:21:58.713Z,16.75
2023-01-12T13:24:09.636Z,20.52
2023-01-12T13:26:37.721Z,20.35
2023-01-12T13:28:39.840Z,18.10
2023-01-12T13:30:49.515Z,17.92
2023-01-12T13:33:11.267Z,19.88
2023-01-12T13:35:23.532Z,16.45
2023-01-12T13:37:43.678Z,19.02
2023-01-12T13:39:57.180Z,15.25
2023-01-12T13:42:18.251Z,19.08
2023-01-12T13:44:21.834Z,14.35
2023-01-12T13:46:40.163Z,15.93
2023-01-12T13:48:43.339Z,15.98
2023-01-12T13:50:53.401Z,17.45
2023-01-12T13:53:01.905Z,16.00
2023-01-12T13:55:17.562Z,17.95
2023-01-12T13:57:23.638Z,15.80
2023-01-12T13:59:28.003Z,15.93
2023-01-12T14:01:33.854Z,17.35
2023-01-12T14:03:56.986Z,19.65
2023-01-12T14:05:58.676Z,17.87
2023-01-12T14:08:08.837Z,16.42
2023-01-12T14:10:19.333Z,20.25
2023-01-12T14:12:24.501Z,16.05
2023-01-12T14:14:51.759Z,17.60
2023-01-12T14:17:13.059Z,14.95
2023-01-12T14:19:26.395Z,15.38
2023-01-12T14:21:34.707Z,20.83
2023-01-12T14:23:36.408Z,14.80
2023-01-12T14:25:38.522Z,17.53
2023-01-12T14:27:48.232Z,17.23
2023-01-12T14:29:51.081Z,15.77
2023-01-12T14:31:53.767Z,13.70
2023-01-12T14:33:57.172Z,15.38
2023-01-12T14:38:01.087Z,13.68
2023-01-12T14:40:03.260Z,18.42
2023-01-12T14:42:23.785Z,19.13
2023-01-12T14:44:44.595Z,16.45
2023-01-12T14:46:48.362Z,15.70
2023-01-12T14:49:01.056Z,17.42
2023-01-12T14:51:02.766Z,14.55
2023-01-12T14:53:24.257Z,17.98
2023-01-12T14:55:26.166Z,13.93
2023-01-12T14:57:36.041Z,19.08
2023-01-12T14:59:43.805Z,13.68
2023-01-12T15:01:46.099Z,14.48
2023-01-12T15:03:50.616Z,16.70
2023-01-12T15:05:55.305Z,19.80
2023-01-12T15:08:26.827Z,15.40
2023-01-12T15:10:32.889Z,13.80
2023-01-12T15:12:53.804Z,19.30
2023-01-12T15:15:15.100Z,21.92
2023-01-12T15:17:35.689Z,34.00
2023-01-12T15:19:56.434Z,38.22
2023-01-12T15:22:16.818Z,22.65
2023-01-12T15:24:37.669Z,16.85
2023-01-12T15:26:39.323Z,36.33
2023-01-12T15:28:41.967Z,25.67
2023-01-12T15:30:43.684Z,16.98
2023-01-12T15:32:47.797Z,20.60
2023-01-12T15:34:50.107Z,17.55
2023-01-12T15:36:52.157Z,13.13
2023-01-12T15:38:53.893Z,18.77
2023-01-12T15:40:55.987Z,16.03
2023-01-12T15:42:59.886Z,19.08
2023-01-12T15:45:01.962Z,18.33
2023-01-12T15:47:03.722Z,17.00
2023-01-12T15:49:06.086Z,16.60
2023-01-12T15:51:09.605Z,16.70
2023-01-12T15:53:13.032Z,20.13
2023-01-12T15:55:18.735Z,18.83
2023-01-12T15:57:20.837Z,20.27
2023-01-12T15:59:22.520Z,17.45
2023-01-12T16:01:26.501Z,17.47
2023-01-12T16:03:55.907Z,18.63
2023-01-12T16:05:50.332Z,21.50
2023-01-12T16:07:52.536Z,18.65
2023-01-12T16:09:55.745Z,23.40
2023-01-12T16:11:57.424Z,25.52
2023-01-12T16:13:59.596Z,23.45
2023-01-12T16:16:01.351Z,22.50
2023-01-12T16:18:03.486Z,23.03
2023-01-12T16:20:05.477Z,20.50
2023-01-12T16:22:21.065Z,24.45
2023-01-12T16:24:26.574Z,25.27
2023-01-12T16:26:29.742Z,22.33
2023-01-12T16:28:31.697Z,32.47
2023-01-12T16:30:33.785Z,23.10
2023-01-12T16:32:36.569Z,25.20
2023-01-12T16:34:38.845Z,29.50
2023-01-12T16:36:41.444Z,27.95
2023-01-12T16:38:43.714Z,29.67
2023-01-12T16:40:45.576Z,25.77
2023-01-12T16:42:47.602Z,27.60
2023-01-12T16:44:51.193Z,26.85
2023-01-12T16:46:53.629Z,30.80
2023-01-12T16:48:56.382Z,26.17
2023-01-12T16:50:58.700Z,28.85
2023-01-12T16:53:00.438Z,30.45
2023-01-12T16:55:02.512Z,30.38
2023-01-12T16:57:04.249Z,28.77
2023-01-12T16:59:08.030Z,28.97
2023-01-12T17:01:11.448Z,33.47
2023-01-12T17:03:14.181Z,27.00
2023-01-12T17:05:16.127Z,32.00
2023-01-12T17:07:18.433Z,31.85
2023-01-12T17:09:20.947Z,37.97
2023-01-12T17:11:27.701Z,39.47
2023-01-12T17:13:30.731Z,33.85
2023-01-12T17:15:33.298Z,35.40
2023-01-12T17:17:35.828Z,34.10
2023-01-12T17:19:38.969Z,39.00
2023-01-12T17:21:41.732Z,38.25
2023-01-12T17:23:44.310Z,45.58
2023-01-12T17:25:45.992Z,43.58
2023-01-12T17:27:48.371Z,39.40
2023-01-12T17:29:50.272Z,36.73
2023-01-12T17:31:53.848Z,36.45
2023-01-12T17:33:56.657Z,36.40
2023-01-12T17:36:01.373Z,46.83
2023-01-12T17:38:03.766Z,35.22
2023-01-12T17:40:06.050Z,38.13
2023-01-12T17:42:27.015Z,44.45
2023-01-12T17:44:29.297Z,43.10
2023-01-12T17:46:31.813Z,35.87
2023-01-12T17:48:33.883Z,39.40
2023-01-12T17:50:35.663Z,40.55
2023-01-12T17:52:37.699Z,42.27
2023-01-12T17:54:39.461Z,39.30
2023-01-12T17:56:41.783Z,42.87
2023-01-12T17:58:43.504Z,41.08
2023-01-12T18:00:45.583Z,42.45
2023-01-12T18:02:47.354Z,36.60
2023-01-12T18:04:49.473Z,42.92
2023-01-12T18:06:51.369Z,36.63
2023-01-12T18:08:55.186Z,36.42
2023-01-12T18:10:56.836Z,34.20
2023-01-12T18:12:59.161Z,40.15
2023-01-12T18:15:00.892Z,36.13
2023-01-12T18:17:02.965Z,42.03
2023-01-12T18:19:05.981Z,41.30
2023-01-12T18:21:09.333Z,38.15
2023-01-12T18:25:12.916Z,36.65
2023-01-12T18:27:14.841Z,38.80
2023-01-12T18:29:16.843Z,39.75
2023-01-12T18:31:19.823Z,37.33
2023-01-12T18:33:21.902Z,39.40
2023-01-12T18:35:23.645Z,34.20
2023-01-12T18:37:25.803Z,39.10
2023-01-12T18:39:27.639Z,56.30
2023-01-12T18:41:48.496Z,37.03
2023-01-12T18:43:51.664Z,38.88
2023-01-12T18:45:53.747Z,36.25
2023-01-12T18:48:14.172Z,35.15
2023-01-12T18:50:36.479Z,34.78
2023-01-12T18:52:56.660Z,38.50
2023-01-12T18:54:59.037Z,34.90
2023-01-12T18:57:00.798Z,36.23
2023-01-12T18:59:04.384Z,31.43
2023-01-12T19:01:09.259Z,30.70
2023-01-12T19:03:12.852Z,32.58
2023-01-12T19:05:25.806Z,34.65
2023-01-12T19:07:31.329Z,30.45
2023-01-12T19:09:35.997Z,32.45
2023-01-12T19:11:38.946Z,30.75
2023-01-12T19:13:59.131Z,32.28
2023-01-12T19:16:19.987Z,31.58
2023-01-12T19:18:21.788Z,32.75
2023-01-12T19:20:28.006Z,33.95
2023-01-12T19:22:48.366Z,33.92
2023-01-12T19:25:09.404Z,35.33
2023-01-12T19:27:30.667Z,31.73
2023-01-12T19:29:34.229Z,31.25
2023-01-12T19:31:36.088Z,29.23
2023-01-12T19:33:38.831Z,27.02
2023-01-12T19:35:41.813Z,31.67
2023-01-12T19:37:47.884Z,29.98
2023-01-12T19:40:07.623Z,31.40
2023-01-12T19:42:28.083Z,31.05
2023-01-12T19:44:29.792Z,26.83
2023-01-12T19:46:33.146Z,30.57
2023-01-12T19:48:34.938Z,27.90
2023-01-12T19:50:37.417Z,27.50
2023-01-12T19:52:40.451Z,25.20
2023-01-12T19:54:42.455Z,26.65
2023-01-12T19:56:46.300Z,30.08
2023-01-12T19:58:48.405Z,26.77
2023-01-12T20:00:50.624Z,34.45
2023-01-12T20:02:52.803Z,21.02
2023-01-12T20:04:54.535Z,29.23
2023-01-12T20:06:56.908Z,27.33
2023-01-12T20:08:58.657Z,29.50
2023-01-12T20:11:03.277Z,26.17
2023-01-12T20:13:07.100Z,29.65
2023-01-12T20:15:09.344Z,26.00
2023-01-12T20:17:11.081Z,30.75
2023-01-12T20:19:13.207Z,26.27
2023-01-12T20:21:15.424Z,27.42
2023-01-12T20:23:18.060Z,26.73
2023-01-12T20:25:20.300Z,29.40
2023-01-12T20:27:22.576Z,25.20
2023-01-12T20:29:24.276Z,28.50
2023-01-12T20:31:26.380Z,27.97
2023-01-12T20:33:28.469Z,22.63
2023-01-12T20:35:30.532Z,23.75
2023-01-12T20:37:33.395Z,25.48
2023-01-12T20:39:35.508Z,26.05
2023-01-12T20:41:38.040Z,25.63
2023-01-12T20:43:40.098Z,25.35
2023-01-12T20:45:42.919Z,24.88
2023-01-12T20:47:44.966Z,30.77
2023-01-12T20:49:46.785Z,27.13
2023-01-12T20:51:49.687Z,25.23
2023-01-12T20:53:51.555Z,26.17
2023-01-12T20:55:53.565Z,31.20
2023-01-12T20:57:55.322Z,24.65
2023-01-12T20:59:57.369Z,27.87
2023-01-12T21:01:59.226Z,22.58
2023-01-12T21:04:01.406Z,27.08
2023-01-12T21:06:07.418Z,24.75
2023-01-12T21:08:09.565Z,29.25
2023-01-12T21:10:12.149Z,24.27
2023-01-12T21:14:16.036Z,24.70
2023-01-12T21:16:18.955Z,26.02
2023-01-12T21:18:20.700Z,22.35
2023-01-12T21:20:23.007Z,30.85
2023-01-12T21:22:24.749Z,22.42
2023-01-12T21:24:27.478Z,23.97
2023-01-12T21:26:29.196Z,24.98
2023-01-12T21:28:31.321Z,26.42
2023-01-12T21:30:32.964Z,21.85
2023-01-12T21:32:35.059Z,24.60
2023-01-12T21:34:36.739Z,21.60
2023-01-12T21:36:38.806Z,21.83
2023-01-12T21:38:40.560Z,27.00
2023-01-12T21:40:42.611Z,27.33
2023-01-12T21:43:03.215Z,23.52
2023-01-12T21:45:05.552Z,28.05
2023-01-12T21:47:07.248Z,28.17
2023-01-12T21:49:09.244Z,21.77
2023-01-12T21:51:12.811Z,29.15
2023-01-12T21:53:16.096Z,25.63
2023-01-12T21:55:19.467Z,23.85
2023-01-12T21:57:21.592Z,21.08
2023-01-12T21:59:23.263Z,19.15
2023-01-12T22:01:25.477Z,23.60
2023-01-12T22:03:27.900Z,19.25
2023-01-12T22:05:29.880Z,21.05
2023-01-12T22:07:31.956Z,24.30
2023-01-12T22:09:33.648Z,26.90
2023-01-12T22:11:35.720Z,19.03
2023-01-12T22:13:37.416Z,22.23
2023-01-12T22:15:39.144Z,27.98
2023-01-12T22:17:41.905Z,22.65
2023-01-12T22:19:43.630Z,22.23
2023-01-12T22:21:45.614Z,21.73
2023-01-12T22:23:47.397Z,19.40
2023-01-12T22:25:49.420Z,20.02
2023-01-12T22:27:51.369Z,21.52
2023-01-12T22:29:53.448Z,23.42
2023-01-12T22:31:55.239Z,20.38
2023-01-12T22:34:04.067Z,20.10
2023-01-12T22:36:07.011Z,23.10
2023-01-12T22:38:09.040Z,20.58
2023-01-12T22:40:11.415Z,21.77
2023-01-12T22:42:13.498Z,22.83
2023-01-12T22:44:15.177Z,23.00
2023-01-12T22:46:26.910Z,20.13
2023-01-12T22:48:28.657Z,19.67
2023-01-12T22:50:30.736Z,17.67
2023-01-12T22:52:32.555Z,22.00
2023-01-12T22:54:34.656Z,20.13
2023-01-12T22:56:36.728Z,19.55
2023-01-12T22:58:39.410Z,17.92
2023-01-12T23:00:41.605Z,21.45
2023-01-12T23:03:02.593Z,22.10
2023-01-12T23:05:05.869Z,19.15
2023-01-12T23:07:07.534Z,18.88
2023-01-12T23:09:11.754Z,19.98
2023-01-12T23:11:13.495Z,21.45
2023-01-12T23:13:17.797Z,22.03
2023-01-12T23:15:19.485Z,21.25
2023-01-12T23:17:21.568Z,20.08
2023-01-12T23:19:23.289Z,21.23
2023-01-12T23:21:27.165Z,19.43
2023-01-12T23:23:30.603Z,23.67
2023-01-12T23:25:32.861Z,19.95
2023-01-12T23:27:35.576Z,21.05
2023-01-12T23:29:38.589Z,21.45
2023-01-12T23:31:40.645Z,20.15
2023-01-12T23:33:45.592Z,22.25
2023-01-12T23:35:47.320Z,19.60
2023-01-12T23:37:49.337Z,18.77
2023-01-12T23:39:51.033Z,20.73
2023-01-12T23:41:53.098Z,22.80
2023-01-12T23:43:56.377Z,19.15
2023-01-12T23:45:59.340Z,18.42
2023-01-12T23:48:01.460Z,24.27
2023-01-12T23:50:04.029Z,23.63
2023-01-12T23:52:06.300Z,20.23
2023-01-12T23:54:08.039Z,19.92
2023-01-12T23:56:12.048Z,18.95
2023-01-12T23:58:13.777Z,17.70
